createdAt,value
2022-10-18T00:01:31.424Z,7.28
2022-10-18T00:03:59.786Z,6.93
2022-10-18T00:06:29.442Z,9.32
2022-10-18T00:08:57.677Z,8.35
2022-10-18T00:11:25.953Z,6.53
2022-10-18T00:13:54.215Z,11.10
2022-10-18T00:16:22.667Z,6.32
2022-10-18T00:18:51.093Z,9.03
2022-10-18T00:21:21.610Z,7.10
2022-10-18T00:23:52.434Z,7.65
2022-10-18T00:26:22.696Z,5.97
2022-10-18T00:28:53.410Z,6.85
2022-10-18T00:31:23.423Z,6.63
2022-10-18T00:33:53.366Z,6.32
2022-10-18T00:36:21.942Z,7.22
2022-10-18T00:38:52.507Z,6.28
2022-10-18T00:41:22.570Z,4.73
2022-10-18T00:43:55.938Z,7.40
2022-10-18T00:46:25.723Z,6.07
2022-10-18T00:51:33.827Z,6.18
2022-10-18T00:54:03.640Z,7.18
2022-10-18T00:56:34.568Z,9.43
2022-10-18T00:59:03.243Z,5.50
2022-10-18T01:01:31.870Z,7.05
2022-10-18T01:04:00.674Z,5.75
2022-10-18T01:06:29.925Z,6.53
2022-10-18T01:09:14.804Z,5.60
2022-10-18T01:12:06.963Z,7.57
2022-10-18T01:14:46.383Z,8.45
2022-10-18T01:17:19.930Z,8.70
2022-10-18T01:20:30.482Z,5.15
2022-10-18T01:23:06.130Z,8.90
2022-10-18T01:25:57.259Z,8.02
2022-10-18T01:28:59.339Z,5.60
2022-10-18T01:31:33.736Z,5.65
2022-10-18T01:34:04.777Z,5.05
2022-10-18T01:36:36.429Z,5.90
2022-10-18T01:39:09.138Z,5.60
2022-10-18T01:41:40.420Z,7.80
2022-10-18T01:44:12.565Z,5.03
2022-10-18T01:46:43.952Z,6.93
2022-10-18T01:49:12.352Z,8.13
2022-10-18T01:51:40.662Z,7.00
2022-10-18T01:54:10.166Z,6.65
2022-10-18T01:56:44.902Z,5.80
2022-10-18T01:59:25.828Z,6.47
2022-10-18T02:02:05.453Z,4.63
2022-10-18T02:04:43.663Z,9.32
2022-10-18T02:07:22.465Z,5.50
2022-10-18T02:09:56.611Z,6.82
2022-10-18T02:12:26.207Z,5.43
2022-10-18T02:14:55.450Z,6.43
2022-10-18T02:17:30.060Z,5.93
2022-10-18T02:19:59.444Z,6.15
2022-10-18T02:22:32.849Z,4.78
2022-10-18T02:25:05.327Z,6.07
2022-10-18T02:27:33.669Z,6.45
2022-10-18T02:30:02.025Z,5.77
2022-10-18T02:32:36.428Z,5.72
2022-10-18T02:35:09.628Z,7.88
2022-10-18T02:37:41.195Z,7.32
2022-10-18T02:40:11.887Z,6.97
2022-10-18T02:42:45.704Z,9.83
2022-10-18T02:45:15.903Z,6.17
2022-10-18T02:47:45.578Z,6.82
2022-10-18T02:50:14.420Z,5.32
2022-10-18T02:52:42.786Z,5.82
2022-10-18T02:55:11.752Z,6.20
2022-10-18T02:57:39.987Z,6.73
2022-10-18T03:00:09.683Z,6.03
2022-10-18T03:02:37.934Z,4.78
2022-10-18T03:05:08.002Z,5.88
2022-10-18T03:07:36.219Z,5.13
2022-10-18T03:10:04.700Z,5.97
2022-10-18T03:12:33.193Z,5.20
2022-10-18T03:15:01.496Z,6.65
2022-10-18T03:17:30.004Z,6.97
2022-10-18T03:19:58.471Z,5.20
2022-10-18T03:24:57.776Z,5.13
2022-10-18T03:27:26.060Z,5.05
2022-10-18T03:29:54.348Z,5.38
2022-10-18T03:32:22.610Z,4.75
2022-10-18T03:34:50.792Z,4.47
2022-10-18T03:37:18.993Z,4.15
2022-10-18T03:39:48.680Z,5.78
2022-10-18T03:42:16.931Z,4.68
2022-10-18T03:44:45.171Z,5.97
2022-10-18T03:47:13.520Z,4.40
2022-10-18T03:49:41.831Z,4.35
2022-10-18T03:52:10.323Z,5.32
2022-10-18T03:54:38.714Z,4.88
2022-10-18T03:57:08.444Z,5.22
2022-10-18T03:59:36.668Z,4.82
2022-10-18T04:02:05.007Z,5.28
2022-10-18T04:04:33.241Z,4.63
2022-10-18T04:07:01.445Z,5.85
2022-10-18T04:09:29.814Z,4.77
2022-10-18T04:11:58.078Z,5.53
2022-10-18T04:14:27.846Z,4.60
2022-10-18T04:16:56.121Z,6.80
2022-10-18T04:19:24.465Z,5.78
2022-10-18T04:21:52.761Z,4.87
2022-10-18T04:24:21.295Z,5.47
2022-10-18T04:26:49.647Z,6.30
2022-10-18T04:29:17.897Z,5.40
2022-10-18T04:31:47.521Z,6.97
2022-10-18T04:34:15.860Z,7.60
2022-10-18T04:36:44.083Z,6.35
2022-10-18T04:39:12.445Z,6.15
2022-10-18T04:41:40.814Z,5.40
2022-10-18T04:44:09.259Z,6.63
2022-10-18T04:46:37.549Z,5.32
2022-10-18T04:49:07.235Z,7.25
2022-10-18T04:51:35.454Z,5.28
2022-10-18T04:54:03.756Z,6.28
2022-10-18T04:56:31.969Z,6.17
2022-10-18T04:59:00.456Z,7.68
2022-10-18T05:01:28.752Z,6.23
2022-10-18T05:03:57.251Z,6.20
2022-10-18T05:06:26.958Z,3.97
2022-10-18T05:08:55.972Z,6.32
2022-10-18T05:11:24.235Z,5.75
2022-10-18T05:13:52.564Z,5.53
2022-10-18T05:16:20.940Z,3.78
2022-10-18T05:18:49.248Z,4.70
2022-10-18T05:21:18.377Z,6.85
2022-10-18T05:23:48.088Z,6.25
2022-10-18T05:26:16.409Z,4.63
2022-10-18T05:28:44.850Z,7.13
2022-10-18T05:31:14.225Z,5.63
2022-10-18T05:33:42.448Z,5.40
2022-10-18T05:36:11.045Z,4.33
2022-10-18T05:38:42.855Z,6.38
2022-10-18T05:41:13.792Z,6.20
2022-10-18T05:43:42.339Z,5.63
2022-10-18T05:46:14.994Z,6.43
2022-10-18T05:48:44.664Z,5.00
2022-10-18T05:51:13.026Z,7.13
2022-10-18T05:53:41.262Z,6.55
2022-10-18T05:56:13.190Z,5.07
2022-10-18T05:58:41.926Z,4.15
2022-10-18T06:01:11.420Z,7.05
2022-10-18T06:03:39.842Z,6.07
2022-10-18T06:06:10.276Z,6.18
2022-10-18T06:08:40.421Z,5.05
2022-10-18T06:11:10.217Z,5.68
2022-10-18T06:13:43.366Z,8.18
2022-10-18T06:16:12.627Z,7.53
2022-10-18T06:18:41.675Z,9.88
2022-10-18T06:21:11.108Z,4.70
2022-10-18T06:23:39.614Z,6.83
2022-10-18T06:26:09.587Z,6.15
2022-10-18T06:28:40.743Z,6.40
2022-10-18T06:31:11.688Z,5.03
2022-10-18T06:33:40.464Z,6.95
2022-10-18T06:36:12.187Z,6.10
2022-10-18T06:38:40.605Z,4.25
2022-10-18T06:41:09.607Z,6.68
2022-10-18T06:43:38.198Z,5.32
2022-10-18T06:46:12.112Z,4.18
2022-10-18T06:48:40.941Z,5.82
2022-10-18T06:51:09.581Z,4.85
2022-10-18T06:53:44.235Z,10.45
2022-10-18T06:56:21.671Z,7.03
2022-10-18T06:58:50.125Z,6.20
2022-10-18T07:01:20.405Z,7.68
2022-10-18T07:03:49.858Z,5.82
2022-10-18T07:06:19.601Z,6.90
2022-10-18T07:08:49.207Z,4.95
2022-10-18T07:11:19.630Z,5.85
2022-10-18T07:13:48.756Z,5.63
2022-10-18T07:16:20.031Z,9.05
2022-10-18T07:18:50.606Z,7.63
2022-10-18T07:21:20.779Z,7.00
2022-10-18T07:23:49.627Z,4.70
2022-10-18T07:26:19.370Z,5.00
2022-10-18T07:28:50.509Z,6.97
2022-10-18T07:31:20.207Z,7.03
2022-10-18T07:33:48.415Z,5.82
2022-10-18T07:36:16.783Z,6.47
2022-10-18T07:38:45.443Z,6.03
2022-10-18T07:41:14.853Z,9.68
2022-10-18T07:43:44.523Z,7.87
2022-10-18T07:46:13.480Z,7.43
2022-10-18T07:48:43.286Z,7.72
2022-10-18T07:51:12.271Z,6.60
2022-10-18T07:53:40.629Z,7.88
2022-10-18T07:56:15.915Z,4.78
2022-10-18T07:58:45.767Z,7.53
2022-10-18T08:01:15.685Z,5.97
2022-10-18T08:03:48.803Z,11.73
2022-10-18T08:06:18.671Z,7.18
2022-10-18T08:08:47.699Z,10.60
2022-10-18T08:11:19.667Z,7.10
2022-10-18T08:13:48.446Z,9.38
2022-10-18T08:16:19.058Z,7.53
2022-10-18T08:18:48.770Z,7.20
2022-10-18T08:21:18.849Z,7.97
2022-10-18T08:23:47.552Z,8.23
2022-10-18T08:26:18.443Z,6.50
2022-10-18T08:28:53.972Z,11.18
2022-10-18T08:31:27.309Z,8.23
2022-10-18T08:33:58.261Z,12.15
2022-10-18T08:36:27.016Z,7.32
2022-10-18T08:38:55.445Z,7.82
2022-10-18T08:41:53.311Z,10.00
2022-10-18T08:44:25.180Z,11.18
2022-10-18T08:46:57.577Z,10.48
2022-10-18T08:49:30.884Z,8.60
2022-10-18T08:51:59.487Z,13.32
2022-10-18T08:54:34.859Z,8.93
2022-10-18T08:57:07.449Z,8.27
2022-10-18T08:59:40.703Z,7.60
2022-10-18T09:02:21.499Z,8.23
2022-10-18T09:04:59.749Z,5.93
2022-10-18T09:07:55.852Z,7.88
2022-10-18T09:10:36.762Z,8.65
2022-10-18T09:13:29.686Z,7.18
2022-10-18T09:16:00.648Z,7.95
2022-10-18T09:18:42.869Z,8.23
2022-10-18T09:21:22.813Z,6.38
2022-10-18T09:23:58.649Z,7.78
2022-10-18T09:26:27.339Z,7.28
2022-10-18T09:29:05.523Z,7.13
2022-10-18T09:31:45.051Z,5.55
2022-10-18T09:34:18.318Z,5.93
2022-10-18T09:36:51.647Z,9.50
2022-10-18T09:39:24.323Z,7.43
2022-10-18T09:41:57.601Z,7.18
2022-10-18T09:44:28.699Z,5.80
2022-10-18T09:47:00.968Z,6.35
2022-10-18T09:49:32.972Z,6.65
2022-10-18T09:52:09.218Z,6.28
2022-10-18T09:54:43.272Z,7.78
2022-10-18T09:57:16.324Z,5.35
2022-10-18T09:59:47.082Z,8.15
2022-10-18T10:02:17.782Z,6.20
2022-10-18T10:04:46.353Z,6.93
2022-10-18T10:07:19.764Z,9.75
2022-10-18T10:09:50.158Z,6.13
2022-10-18T10:12:30.997Z,9.52
2022-10-18T10:15:19.153Z,5.55
2022-10-18T10:17:57.559Z,6.50
2022-10-18T10:20:30.520Z,8.15
2022-10-18T10:23:08.175Z,7.07
2022-10-18T10:25:38.782Z,4.28
2022-10-18T10:28:14.100Z,8.07
2022-10-18T10:30:42.424Z,4.53
2022-10-18T10:33:35.677Z,8.40
2022-10-18T10:36:06.987Z,8.00
2022-10-18T10:38:36.690Z,7.60
2022-10-18T10:41:05.111Z,8.95
2022-10-18T10:43:40.070Z,7.03
2022-10-18T10:46:11.453Z,8.73
2022-10-18T10:48:49.087Z,11.13
2022-10-18T10:51:24.788Z,8.50
2022-10-18T10:54:01.100Z,5.68
2022-10-18T10:56:31.539Z,6.28
2022-10-18T10:59:09.751Z,5.55
2022-10-18T11:01:38.119Z,11.87
2022-10-18T11:04:26.042Z,9.80
2022-10-18T11:07:08.223Z,8.07
2022-10-18T11:09:49.373Z,7.63
2022-10-18T11:12:34.958Z,4.75
2022-10-18T11:15:28.669Z,10.77
2022-10-18T11:18:07.972Z,8.13
2022-10-18T11:20:41.834Z,4.47
2022-10-18T11:23:13.463Z,8.05
2022-10-18T11:26:02.194Z,7.50
2022-10-18T11:28:43.426Z,8.95
2022-10-18T11:31:19.636Z,9.40
2022-10-18T11:34:15.084Z,5.80
2022-10-18T11:37:02.268Z,7.60
2022-10-18T11:39:51.168Z,6.73
2022-10-18T11:42:31.350Z,5.82
2022-10-18T11:45:12.489Z,10.35
2022-10-18T11:47:53.671Z,5.20
2022-10-18T11:50:32.071Z,5.68
2022-10-18T11:53:12.766Z,7.57
2022-10-18T11:55:51.844Z,6.13
2022-10-18T11:58:33.319Z,8.57
2022-10-18T12:01:09.198Z,7.78
2022-10-18T12:03:49.829Z,6.40
2022-10-18T12:06:22.044Z,5.30
2022-10-18T12:08:54.359Z,4.30
2022-10-18T12:11:25.976Z,8.00
2022-10-18T12:13:58.989Z,6.70
2022-10-18T12:16:49.981Z,6.78
2022-10-18T12:19:26.401Z,8.07
2022-10-18T12:21:57.924Z,7.35
2022-10-18T12:24:29.730Z,7.47
2022-10-18T12:27:01.015Z,5.95
2022-10-18T12:29:37.647Z,7.53
2022-10-18T12:32:11.256Z,5.72
2022-10-18T12:34:44.634Z,4.82
2022-10-18T12:37:32.910Z,8.65
2022-10-18T12:40:10.632Z,6.75
2022-10-18T12:42:44.661Z,7.72
2022-10-18T12:45:30.276Z,7.20
2022-10-18T12:48:02.112Z,6.63
2022-10-18T12:50:34.972Z,7.57
2022-10-18T12:53:07.065Z,8.48
2022-10-18T12:55:37.985Z,7.38
2022-10-18T12:58:25.191Z,8.55
2022-10-18T13:00:57.254Z,6.20
2022-10-18T13:03:41.820Z,10.27
2022-10-18T13:06:10.241Z,4.50
2022-10-18T13:08:42.141Z,7.57
2022-10-18T13:11:30.338Z,6.07
2022-10-18T13:14:35.968Z,8.90
2022-10-18T13:17:15.212Z,6.85
2022-10-18T13:20:20.608Z,7.88
2022-10-18T13:22:58.746Z,7.88
2022-10-18T13:25:33.903Z,5.10
2022-10-18T13:28:19.030Z,6.75
2022-10-18T13:30:56.661Z,5.22
2022-10-18T13:33:35.971Z,10.07
2022-10-18T13:36:07.110Z,7.35
2022-10-18T13:39:03.751Z,12.55
2022-10-18T13:41:57.409Z,6.97
2022-10-18T13:44:30.553Z,6.07
2022-10-18T13:47:35.891Z,6.03
2022-10-18T13:50:31.728Z,7.88
2022-10-18T13:53:43.393Z,5.28
2022-10-18T13:56:46.687Z,6.65
2022-10-18T13:59:27.276Z,7.00
2022-10-18T14:02:30.717Z,5.72
2022-10-18T14:05:25.149Z,5.63
2022-10-18T14:07:58.381Z,6.43
2022-10-18T14:10:44.156Z,4.18
2022-10-18T14:13:27.065Z,5.05
2022-10-18T14:16:04.874Z,5.93
2022-10-18T14:18:36.110Z,5.43
2022-10-18T14:21:15.243Z,7.15
2022-10-18T14:23:48.241Z,5.25
2022-10-18T14:26:18.511Z,6.40
2022-10-18T14:28:59.633Z,4.10
2022-10-18T14:31:29.260Z,8.13
2022-10-18T14:33:59.680Z,5.72
2022-10-18T14:36:41.844Z,7.10
2022-10-18T14:39:20.354Z,7.10
2022-10-18T14:41:52.938Z,7.35
2022-10-18T14:44:23.090Z,8.27
2022-10-18T14:46:53.383Z,6.38
2022-10-18T14:49:22.664Z,6.60
2022-10-18T14:51:54.725Z,9.13
2022-10-18T14:54:30.755Z,6.30
2022-10-18T14:57:01.010Z,6.85
2022-10-18T14:59:31.789Z,8.35
2022-10-18T15:02:02.043Z,4.97
2022-10-18T15:04:33.181Z,6.53
2022-10-18T15:07:06.244Z,6.45
2022-10-18T15:09:36.996Z,6.68
2022-10-18T15:12:07.876Z,5.25
2022-10-18T15:14:36.856Z,7.73
2022-10-18T15:17:13.546Z,4.70
2022-10-18T15:19:54.604Z,8.07
2022-10-18T15:22:31.633Z,5.85
2022-10-18T15:25:18.915Z,6.50
2022-10-18T15:27:48.919Z,7.80
2022-10-18T15:30:21.436Z,7.93
2022-10-18T15:32:53.322Z,8.55
2022-10-18T15:35:26.494Z,6.25
2022-10-18T15:37:58.489Z,5.90
2022-10-18T15:40:39.199Z,8.63
2022-10-18T15:43:39.984Z,7.13
2022-10-18T15:46:28.407Z,4.32
2022-10-18T15:49:34.432Z,10.18
2022-10-18T15:52:38.078Z,10.95
2022-10-18T15:55:44.865Z,11.63
2022-10-18T15:58:19.836Z,9.85
2022-10-18T16:00:50.092Z,8.18
2022-10-18T16:03:19.714Z,12.95
2022-10-18T16:05:47.957Z,8.75
2022-10-18T16:08:24.442Z,9.32
2022-10-18T16:10:53.582Z,7.00
2022-10-18T16:13:23.374Z,6.38
2022-10-18T16:15:55.783Z,13.20
2022-10-18T16:18:25.244Z,6.18
2022-10-18T16:20:54.047Z,9.02
2022-10-18T16:23:24.372Z,10.70
2022-10-18T16:25:54.354Z,7.00
2022-10-18T16:28:26.151Z,7.57
2022-10-18T16:30:59.336Z,9.43
2022-10-18T16:33:28.695Z,8.85
2022-10-18T16:35:57.189Z,4.82
2022-10-18T16:38:32.796Z,5.32
2022-10-18T16:41:04.568Z,9.70
2022-10-18T16:43:34.751Z,9.07
2022-10-18T16:46:04.061Z,8.18
2022-10-18T16:48:32.330Z,4.30
2022-10-18T16:51:00.855Z,8.63
2022-10-18T16:53:29.290Z,7.35
2022-10-18T16:55:59.225Z,11.63
2022-10-18T16:58:28.625Z,11.65
2022-10-18T17:00:59.115Z,10.60
2022-10-18T17:03:27.879Z,13.35
2022-10-18T17:05:56.914Z,16.85
2022-10-18T17:08:28.116Z,10.52
2022-10-18T17:10:59.357Z,14.88
2022-10-18T17:13:27.864Z,13.13
2022-10-18T17:15:59.354Z,12.77
2022-10-18T17:18:27.796Z,6.70
2022-10-18T17:20:56.674Z,8.75
2022-10-18T17:23:25.027Z,9.15
2022-10-18T17:26:05.607Z,17.17
2022-10-18T17:28:35.583Z,11.10
2022-10-18T17:31:07.483Z,9.32
2022-10-18T17:33:35.942Z,8.70
2022-10-18T17:36:05.099Z,9.20
2022-10-18T17:38:33.416Z,9.57
2022-10-18T17:41:01.729Z,4.20
2022-10-18T17:43:30.095Z,8.75
2022-10-18T17:45:58.475Z,9.05
2022-10-18T17:48:29.241Z,12.48
2022-10-18T17:50:57.846Z,13.13
2022-10-18T17:53:29.174Z,12.43
2022-10-18T17:56:02.644Z,12.13
2022-10-18T17:58:31.460Z,9.00
2022-10-18T18:01:09.189Z,12.70
2022-10-18T18:03:39.031Z,13.40
2022-10-18T18:06:15.358Z,10.50
2022-10-18T18:08:44.889Z,23.17
2022-10-18T18:11:13.561Z,31.67
2022-10-18T18:13:41.924Z,11.15
2022-10-18T18:16:15.374Z,12.65
2022-10-18T18:18:45.892Z,10.38
2022-10-18T18:21:14.663Z,11.60
2022-10-18T18:23:42.958Z,9.57
2022-10-18T18:26:11.398Z,6.85
2022-10-18T18:28:40.342Z,11.52
2022-10-18T18:31:09.701Z,12.85
2022-10-18T18:33:38.680Z,7.87
2022-10-18T18:36:09.791Z,13.80
2022-10-18T18:38:40.122Z,14.18
2022-10-18T18:41:10.143Z,12.05
2022-10-18T18:43:39.677Z,11.48
2022-10-18T18:46:08.445Z,10.60
2022-10-18T18:48:38.081Z,17.13
2022-10-18T18:51:11.795Z,11.75
2022-10-18T18:53:41.188Z,14.98
2022-10-18T18:56:11.288Z,12.03
2022-10-18T18:58:40.474Z,14.52
2022-10-18T19:01:10.509Z,15.40
2022-10-18T19:03:40.257Z,13.25
2022-10-18T19:06:12.265Z,15.75
2022-10-18T19:08:41.269Z,12.07
2022-10-18T19:11:10.379Z,11.75
2022-10-18T19:13:38.644Z,15.02
2022-10-18T19:16:22.809Z,12.50
2022-10-18T19:18:56.592Z,11.73
2022-10-18T19:21:28.223Z,11.57
2022-10-18T19:23:57.339Z,11.43
2022-10-18T19:26:32.085Z,13.98
2022-10-18T19:29:07.301Z,14.30
2022-10-18T19:31:36.123Z,11.37
2022-10-18T19:34:05.415Z,11.00
2022-10-18T19:36:36.523Z,11.13
2022-10-18T19:39:05.927Z,9.55
2022-10-18T19:41:34.321Z,8.98
2022-10-18T19:44:02.966Z,12.15
2022-10-18T19:46:31.255Z,10.90
2022-10-18T19:48:59.592Z,10.45
2022-10-18T19:51:28.486Z,10.80
2022-10-18T19:53:58.761Z,10.45
2022-10-18T19:56:28.250Z,7.97
2022-10-18T19:58:57.686Z,8.98
2022-10-18T20:01:26.937Z,11.55
2022-10-18T20:03:55.673Z,9.13
2022-10-18T20:06:24.353Z,13.40
2022-10-18T20:08:53.174Z,10.55
2022-10-18T20:11:25.098Z,14.27
2022-10-18T20:13:53.511Z,15.05
2022-10-18T20:16:28.097Z,14.25
2022-10-18T20:18:58.060Z,12.27
2022-10-18T20:21:26.474Z,11.98
2022-10-18T20:23:54.764Z,10.57
2022-10-18T20:26:25.605Z,13.68
2022-10-18T20:28:57.825Z,11.82
2022-10-18T20:31:27.574Z,12.88
2022-10-18T20:33:57.421Z,18.40
2022-10-18T20:36:26.455Z,16.42
2022-10-18T20:38:55.321Z,19.15
2022-10-18T20:41:27.256Z,11.70
2022-10-18T20:43:57.403Z,11.93
2022-10-18T20:46:26.838Z,13.38
2022-10-18T20:48:55.567Z,10.80
2022-10-18T20:51:24.493Z,11.90
2022-10-18T20:53:53.778Z,8.52
2022-10-18T20:56:26.695Z,13.87
2022-10-18T20:58:57.492Z,11.40
2022-10-18T21:01:27.546Z,10.23
2022-10-18T21:03:58.625Z,9.18
2022-10-18T21:06:28.454Z,10.77
2022-10-18T21:08:57.971Z,9.90
2022-10-18T21:11:29.496Z,15.73
2022-10-18T21:14:02.160Z,12.40
2022-10-18T21:16:31.051Z,6.82
2022-10-18T21:19:04.294Z,10.52
2022-10-18T21:21:32.700Z,13.88
2022-10-18T21:24:03.901Z,10.82
2022-10-18T21:26:37.076Z,8.85
2022-10-18T21:29:06.634Z,14.73
2022-10-18T21:31:36.959Z,10.00
2022-10-18T21:34:07.529Z,10.75
2022-10-18T21:36:38.127Z,11.52
2022-10-18T21:39:08.830Z,10.85
2022-10-18T21:41:38.823Z,9.85
2022-10-18T21:44:10.719Z,11.30
2022-10-18T21:46:40.393Z,12.18
2022-10-18T21:49:10.178Z,10.45
2022-10-18T21:51:38.888Z,11.60
2022-10-18T21:54:09.429Z,11.55
2022-10-18T21:56:39.131Z,8.35
2022-10-18T21:59:07.571Z,11.07
2022-10-18T22:01:37.480Z,8.18
2022-10-18T22:04:08.196Z,16.73
2022-10-18T22:06:37.581Z,13.13
2022-10-18T22:09:08.447Z,12.18
2022-10-18T22:11:40.873Z,11.48
2022-10-18T22:14:09.124Z,12.50
2022-10-18T22:16:37.714Z,9.95
2022-10-18T22:19:07.531Z,7.32
2022-10-18T22:21:35.825Z,14.15
2022-10-18T22:24:07.520Z,9.93
2022-10-18T22:26:37.528Z,10.27
2022-10-18T22:29:08.745Z,9.05
2022-10-18T22:31:39.862Z,10.27
2022-10-18T22:34:10.009Z,6.97
2022-10-18T22:36:38.456Z,7.60
2022-10-18T22:39:07.426Z,14.70
2022-10-18T22:41:36.357Z,11.38
2022-10-18T22:44:06.187Z,10.73
2022-10-18T22:46:34.418Z,11.73
2022-10-18T22:49:02.992Z,10.90
2022-10-18T22:51:31.311Z,7.85
2022-10-18T22:53:59.672Z,8.10
2022-10-18T22:56:27.922Z,8.90
2022-10-18T22:58:56.523Z,9.85
2022-10-18T23:01:26.523Z,6.25
2022-10-18T23:03:55.101Z,10.90
2022-10-18T23:06:25.730Z,9.52
2022-10-18T23:08:55.804Z,9.48
2022-10-18T23:11:24.667Z,8.75
2022-10-18T23:13:53.302Z,9.95
2022-10-18T23:16:22.119Z,8.27
2022-10-18T23:18:52.978Z,8.43
2022-10-18T23:21:23.883Z,8.67
2022-10-18T23:23:53.289Z,7.90
2022-10-18T23:26:23.922Z,13.82
2022-10-18T23:28:53.772Z,7.67
2022-10-18T23:31:23.383Z,8.90
2022-10-18T23:33:55.124Z,5.82
2022-10-18T23:36:24.500Z,8.45
2022-10-18T23:38:53.069Z,10.82
2022-10-18T23:41:21.807Z,8.15
2022-10-18T23:43:50.223Z,9.65
2022-10-18T23:46:19.827Z,6.93
2022-10-18T23:48:49.237Z,11.95
2022-10-18T23:51:19.326Z,8.75
2022-10-18T23:53:48.462Z,11.50
2022-10-18T23:56:18.048Z,8.13
2022-10-18T23:58:47.293Z,8.13
